Time;durP1;ratioP1;P1;durP2;ratioP2;P2;SDS_P1;SDS_P2;PMS_P1;PMS_P2;Temp;Humidity;BMP_temperature;BMP_pressure;BME280_temperature;BME280_humidity;BME280_pressure;Samples;Min_cycle;Max_cycle;Signal;HPM_P1;HPM_P2
2022/11/11 00:02:23;;;;;;;1.95;1.23;;;10.10;87.60;;;;;;5133275;27;20041;-72
2022/11/11 00:04:49;;;;;;;3.03;1.30;;;10.10;87.60;;;;;;5132957;27;20039;-73
2022/11/11 00:07:14;;;;;;;1.52;0.93;;;10.00;87.60;;;;;;5132895;27;20038;-72
2022/11/11 00:09:40;;;;;;;3.45;1.30;;;10.10;87.70;;;;;;5132780;27;20039;-73
2022/11/11 00:12:06;;;;;;;2.53;1.27;;;10.00;87.70;;;;;;5114383;27;20028;-73
2022/11/11 00:14:31;;;;;;;1.42;1.05;;;10.00;87.70;;;;;;5133158;27;20452;-73
2022/11/11 00:25:04;;;;;;;2.15;1.20;;;10.00;87.90;;;;;;5116975;27;20047;-72
2022/11/11 00:27:30;;;;;;;1.92;1.30;;;9.90;87.80;;;;;;5133224;27;20046;-73
2022/11/11 00:29:56;;;;;;;2.33;1.30;;;10.00;88.00;;;;;;5114394;28;20436;-72
2022/11/11 00:32:22;;;;;;;1.75;1.10;;;9.90;87.90;;;;;;5114165;27;20051;-72
2022/11/11 00:37:25;;;;;;;2.20;1.10;;;9.90;88.00;;;;;;5115890;27;20136;-73
2022/11/11 00:39:50;;;;;;;1.15;1.05;;;10.00;88.10;;;;;;5113438;27;20168;-72
2022/11/11 00:42:16;;;;;;;2.33;1.30;;;9.90;87.90;;;;;;5132866;27;20043;-73
2022/11/11 00:44:42;;;;;;;2.10;1.23;;;10.00;88.00;;;;;;5097534;27;20042;-72
2022/11/11 00:52:31;;;;;;;2.28;1.30;;;10.10;87.90;;;;;;5130999;27;20358;-72
2022/11/11 00:54:57;;;;;;;2.38;1.30;;;10.10;87.90;;;;;;5094830;27;20048;-72
2022/11/11 00:57:22;;;;;;;2.42;1.40;;;10.10;87.90;;;;;;5134596;27;20035;-72
2022/11/11 00:59:48;;;;;;;2.30;1.40;;;10.10;87.90;;;;;;5136418;27;20497;-72
2022/11/11 01:02:14;;;;;;;3.42;1.67;;;10.10;87.90;;;;;;5115879;27;20032;-72
2022/11/11 01:04:39;;;;;;;2.42;1.30;;;10.10;87.90;;;;;;5135833;27;20035;-73
2022/11/11 01:07:05;;;;;;;1.85;1.30;;;10.10;87.90;;;;;;5117450;28;20047;-72
2022/11/11 01:09:31;;;;;;;1.90;1.38;;;10.10;87.90;;;;;;5117510;27;20046;-73
2022/11/11 01:11:56;;;;;;;2.78;1.63;;;10.10;87.90;;;;;;5118158;27;20054;-72
2022/11/11 01:14:22;;;;;;;4.22;1.65;;;10.10;87.90;;;;;;5117524;27;20042;-73
2022/11/11 01:16:48;;;;;;;2.08;1.50;;;10.10;87.90;;;;;;5136406;27;20050;-73
2022/11/11 01:19:13;;;;;;;4.05;1.92;;;10.20;88.00;;;;;;5115422;27;20047;-72
2022/11/11 01:21:39;;;;;;;2.72;1.52;;;10.20;88.00;;;;;;5135868;27;20119;-72
2022/11/11 01:24:05;;;;;;;3.33;1.77;;;10.10;87.90;;;;;;5136323;27;20487;-73
2022/11/11 01:26:30;;;;;;;2.38;1.52;;;10.10;87.90;;;;;;5136322;27;20040;-72
2022/11/11 01:28:56;;;;;;;2.33;1.52;;;10.20;88.00;;;;;;5117344;27;20080;-73
2022/11/11 01:31:24;;;;;;;2.08;1.60;;;10.10;87.90;;;;;;5100143;27;20409;-72
2022/11/11 01:33:50;;;;;;;2.42;1.55;;;10.20;88.00;;;;;;5100600;27;20043;-73
2022/11/11 01:36:20;;;;;;;2.88;1.73;;;10.10;88.00;;;;;;5115002;28;20062;-73
2022/11/11 01:38:50;;;;;;;3.55;2.10;;;10.20;88.10;;;;;;5135960;27;20043;-73
2022/11/11 01:44:11;;;;;;;2.80;1.88;;;10.20;88.10;;;;;;5119610;27;20129;-73
2022/11/11 01:46:59;;;;;;;3.67;1.92;;;10.20;88.10;;;;;;5135900;27;20047;-73
2022/11/11 01:49:38;;;;;;;4.03;2.35;;;10.20;88.10;;;;;;5117266;28;20047;-72
2022/11/11 01:52:19;;;;;;;3.58;2.38;;;10.20;88.00;;;;;;5132106;27;20436;-74
2022/11/11 01:54:53;;;;;;;4.20;2.72;;;10.20;88.10;;;;;;5134454;27;20047;-73
2022/11/11 01:57:27;;;;;;;4.78;2.42;;;10.30;88.10;;;;;;5116790;28;20111;-73
2022/11/11 01:59:59;;;;;;;4.85;1.95;;;10.30;88.10;;;;;;5135213;27;20497;-73
2022/11/11 02:02:37;;;;;;;4.00;2.17;;;10.30;88.10;;;;;;5116045;27;20035;-73
2022/11/11 02:07:41;;;;;;;3.58;2.50;;;10.30;88.20;;;;;;5117641;27;20145;-73
2022/11/11 02:10:08;;;;;;;3.47;2.30;;;10.30;88.10;;;;;;5135037;27;20051;-73
2022/11/11 02:15:11;;;;;;;4.97;2.60;;;10.30;88.10;;;;;;5134752;27;20103;-73
2022/11/11 02:17:38;;;;;;;4.30;2.47;;;10.40;88.20;;;;;;5134729;27;20067;-72
2022/11/11 02:20:05;;;;;;;4.55;2.67;;;10.40;88.20;;;;;;5134697;27;20491;-73
2022/11/11 02:22:56;;;;;;;4.25;2.42;;;10.40;88.20;;;;;;5135011;27;20043;-73
2022/11/11 02:25:26;;;;;;;3.95;2.28;;;10.40;88.30;;;;;;5134569;27;20144;-73
2022/11/11 02:27:56;;;;;;;2.92;2.08;;;10.50;88.30;;;;;;5134731;27;20439;-72
2022/11/11 02:30:22;;;;;;;3.05;2.10;;;10.60;88.30;;;;;;5134662;27;20043;-72
2022/11/11 02:32:51;;;;;;;3.53;2.17;;;10.40;88.20;;;;;;5116355;27;20129;-73
2022/11/11 02:35:30;;;;;;;2.95;1.95;;;10.50;88.30;;;;;;5115371;27;20122;-73
2022/11/11 02:37:56;;;;;;;3.85;2.28;;;10.50;88.30;;;;;;5117154;27;20043;-73
2022/11/11 02:40:35;;;;;;;4.25;2.35;;;10.50;88.30;;;;;;5114218;28;20376;-73
2022/11/11 02:43:01;;;;;;;3.22;1.95;;;10.50;88.40;;;;;;5134248;27;20529;-72
2022/11/11 02:45:26;;;;;;;2.88;1.85;;;10.60;88.40;;;;;;5116219;27;20039;-73
2022/11/11 02:47:52;;;;;;;2.63;1.55;;;10.50;88.40;;;;;;5097044;27;20351;-73
2022/11/11 02:50:21;;;;;;;3.80;1.98;;;10.50;88.40;;;;;;5115392;27;20055;-73
2022/11/11 02:52:47;;;;;;;4.40;2.50;;;10.50;88.40;;;;;;5133956;27;20043;-73
2022/11/11 02:55:13;;;;;;;3.28;1.95;;;10.50;88.50;;;;;;5114394;28;20047;-73
2022/11/11 02:57:39;;;;;;;3.78;2.17;;;10.50;88.50;;;;;;5115870;27;20075;-73
2022/11/11 03:00:05;;;;;;;3.28;1.90;;;10.50;88.50;;;;;;5098708;27;20146;-73
2022/11/11 03:02:31;;;;;;;3.15;1.92;;;10.50;88.50;;;;;;5134330;27;20412;-73
2022/11/11 03:04:57;;;;;;;3.42;2.00;;;10.50;88.60;;;;;;5134126;27;20028;-72
2022/11/11 03:07:24;;;;;;;3.75;2.13;;;10.50;88.50;;;;;;5133884;27;20066;-73
2022/11/11 03:09:52;;;;;;;3.88;2.05;;;10.50;88.60;;;;;;5115402;27;20483;-72
2022/11/11 03:12:18;;;;;;;2.47;1.83;;;10.50;88.60;;;;;;5134122;27;20035;-73
2022/11/11 03:14:44;;;;;;;4.35;2.30;;;10.50;88.60;;;;;;5115195;28;20050;-72
2022/11/11 03:19:49;;;;;;;2.88;1.75;;;10.50;88.70;;;;;;5132899;27;20427;-72
2022/11/11 03:22:15;;;;;;;3.17;2.10;;;10.50;88.70;;;;;;5114061;27;20040;-73
2022/11/11 03:27:19;;;;;;;4.13;2.45;;;10.50;88.70;;;;;;5117383;27;20043;-73
2022/11/11 03:29:45;;;;;;;3.65;2.25;;;10.60;88.80;;;;;;5115149;27;20080;-72
2022/11/11 03:32:11;;;;;;;4.93;2.70;;;10.50;88.80;;;;;;5133902;27;20031;-73
2022/11/11 03:34:37;;;;;;;4.97;3.00;;;10.40;88.80;;;;;;5115596;27;20046;-73
2022/11/11 03:39:50;;;;;;;3.95;2.50;;;10.40;88.90;;;;;;5133401;27;20074;-73
2022/11/11 03:42:16;;;;;;;5.40;2.80;;;10.50;89.00;;;;;;5115206;27;20035;-72
2022/11/11 03:44:42;;;;;;;3.92;2.35;;;10.50;89.00;;;;;;5114846;27;20125;-73
2022/11/11 03:47:07;;;;;;;4.03;2.70;;;10.40;89.00;;;;;;5114857;27;20138;-73
2022/11/11 03:49:33;;;;;;;5.45;2.35;;;10.40;89.00;;;;;;5133292;27;20039;-73
2022/11/11 03:51:58;;;;;;;4.03;2.20;;;10.50;89.10;;;;;;5133696;27;20035;-73
2022/11/11 03:54:24;;;;;;;3.38;2.03;;;10.40;89.10;;;;;;5133748;27;20054;-72
2022/11/11 03:56:50;;;;;;;4.60;2.70;;;10.40;89.20;;;;;;5097805;27;20058;-73
2022/11/11 03:59:15;;;;;;;4.07;2.53;;;10.40;89.20;;;;;;5114977;27;20027;-73
2022/11/11 04:12:23;;;;;;;3.30;2.03;;;10.40;89.20;;;;;;5116760;28;20391;-73
2022/11/11 04:17:32;;;;;;;2.45;1.80;;;10.40;89.20;;;;;;5117139;27;20134;-73
2022/11/11 04:22:43;;;;;;;2.50;1.77;;;10.40;89.30;;;;;;5116322;27;20058;-72
2022/11/11 04:30:33;;;;;;;2.83;1.88;;;10.30;89.30;;;;;;5132615;27;20047;-73
2022/11/11 04:32:59;;;;;;;3.80;2.00;;;10.40;89.30;;;;;;5114266;27;20436;-73
2022/11/11 04:35:25;;;;;;;2.83;1.80;;;10.40;89.40;;;;;;5132841;27;20039;-73
2022/11/11 04:41:02;;;;;;;2.95;1.80;;;10.40;89.40;;;;;;5132562;27;20097;-72
2022/11/11 04:43:14;;;;;;;2.03;1.33;;;10.40;89.40;;;;;;5132639;27;20075;-72
2022/11/11 04:45:40;;;;;;;2.05;1.30;;;10.40;89.40;;;;;;5097175;27;20402;-73
2022/11/11 04:48:09;;;;;;;2.75;1.42;;;10.50;89.50;;;;;;5114728;27;20066;-72
2022/11/11 04:50:37;;;;;;;2.10;1.30;;;10.40;89.50;;;;;;5132365;27;20070;-73
2022/11/11 04:53:05;;;;;;;2.35;1.42;;;10.40;89.50;;;;;;5114299;27;20565;-73
2022/11/11 04:58:18;;;;;;;3.22;1.90;;;10.30;89.40;;;;;;5116911;27;20067;-73
2022/11/11 05:00:44;;;;;;;2.13;1.70;;;10.40;89.60;;;;;;5113816;28;20043;-73
2022/11/11 05:03:14;;;;;;;2.70;1.60;;;10.30;89.60;;;;;;5114272;28;20035;-73
2022/11/11 05:11:07;;;;;;;2.47;1.58;;;10.30;89.60;;;;;;5132610;27;20491;-72
2022/11/11 05:21:52;;;;;;;2.80;1.70;;;10.30;89.70;;;;;;5116004;27;20108;-72
2022/11/11 05:26:59;;;;;;;2.33;1.48;;;10.30;89.70;;;;;;5132412;27;20474;-73
2022/11/11 05:29:25;;;;;;;2.35;1.60;;;10.30;89.70;;;;;;5132956;27;20038;-73
2022/11/11 05:31:51;;;;;;;4.93;1.50;;;10.30;89.80;;;;;;5132313;27;20039;-73
2022/11/11 05:34:16;;;;;;;3.35;1.70;;;10.20;89.80;;;;;;5132815;27;20045;-73
2022/11/11 05:36:42;;;;;;;2.90;1.80;;;10.30;89.80;;;;;;5113872;27;20088;-73
2022/11/11 05:39:07;;;;;;;3.35;1.88;;;10.10;89.70;;;;;;5113881;27;20040;-73
2022/11/11 05:41:33;;;;;;;3.63;1.98;;;10.20;89.80;;;;;;5132104;27;20035;-73
2022/11/11 05:43:59;;;;;;;3.20;1.80;;;10.20;89.80;;;;;;5115057;28;20067;-73
2022/11/11 05:46:25;;;;;;;3.30;2.00;;;10.20;89.80;;;;;;5100330;27;20043;-73
2022/11/11 05:49:24;;;;;;;2.53;1.60;;;10.10;89.80;;;;;;5117251;27;20047;-73
2022/11/11 05:51:36;;;;;;;3.22;1.85;;;10.20;89.90;;;;;;5105934;27;20133;-72
2022/11/11 05:54:02;;;;;;;4.15;2.40;;;10.20;89.90;;;;;;5136079;27;20561;-73
2022/11/11 05:56:27;;;;;;;4.05;2.40;;;10.20;89.90;;;;;;5100467;27;20506;-72
2022/11/11 05:58:53;;;;;;;3.17;2.30;;;10.10;89.90;;;;;;5135414;27;20394;-72
2022/11/11 06:01:19;;;;;;;4.25;2.40;;;10.10;89.90;;;;;;5135914;27;20039;-72
2022/11/11 06:03:45;;;;;;;3.80;2.08;;;10.10;90.00;;;;;;5135917;27;20043;-73
2022/11/11 06:06:11;;;;;;;3.30;2.00;;;10.10;90.00;;;;;;5135222;27;20043;-73
2022/11/11 06:08:38;;;;;;;3.42;1.83;;;10.10;90.00;;;;;;5116803;27;20100;-72
2022/11/11 06:11:03;;;;;;;3.90;1.95;;;10.10;90.00;;;;;;5115725;27;20051;-73
2022/11/11 06:13:29;;;;;;;5.53;2.75;;;10.20;90.00;;;;;;5135132;27;20035;-73
2022/11/11 06:15:56;;;;;;;4.70;2.47;;;10.00;90.00;;;;;;5135349;27;20134;-73
2022/11/11 06:18:22;;;;;;;4.43;2.40;;;10.00;90.00;;;;;;5117093;28;20037;-72
2022/11/11 06:20:56;;;;;;;4.95;2.92;;;10.00;90.00;;;;;;5135166;27;20043;-73
2022/11/11 06:23:23;;;;;;;4.68;2.67;;;10.00;90.00;;;;;;5116423;27;20051;-73
2022/11/11 06:28:34;;;;;;;4.50;2.58;;;9.90;90.00;;;;;;5135103;27;20051;-73
2022/11/11 06:31:00;;;;;;;3.70;2.10;;;9.90;90.10;;;;;;5116741;28;20077;-73
2022/11/11 06:33:26;;;;;;;2.83;1.85;;;9.90;90.10;;;;;;5116285;28;20054;-73
2022/11/11 06:35:52;;;;;;;4.28;2.40;;;9.90;90.10;;;;;;5134602;27;20052;-72
2022/11/11 06:38:18;;;;;;;4.75;2.65;;;9.90;90.10;;;;;;5116223;27;20172;-73
2022/11/11 06:40:44;;;;;;;3.17;2.10;;;9.90;90.10;;;;;;5134702;27;20397;-73
2022/11/11 06:43:10;;;;;;;5.20;2.20;;;9.90;90.20;;;;;;5115400;27;20035;-73
2022/11/11 06:45:36;;;;;;;3.33;1.92;;;9.90;90.10;;;;;;5097898;28;20433;-73
2022/11/11 06:48:03;;;;;;;3.20;1.90;;;9.90;90.10;;;;;;5116206;27;20459;-72
2022/11/11 06:50:31;;;;;;;3.22;1.70;;;9.90;90.10;;;;;;5135082;27;20475;-73
2022/11/11 06:53:04;;;;;;;4.85;2.47;;;9.90;90.10;;;;;;5134720;27;20138;-72
2022/11/11 06:55:31;;;;;;;3.03;1.83;;;9.90;90.20;;;;;;5099197;27;20047;-72
2022/11/11 06:58:05;;;;;;;3.13;2.03;;;9.90;90.20;;;;;;5134647;27;20035;-73
2022/11/11 07:00:31;;;;;;;3.65;1.90;;;9.80;90.20;;;;;;5116701;28;20512;-73
2022/11/11 07:02:57;;;;;;;2.63;1.80;;;9.80;90.20;;;;;;5134516;27;20402;-73
2022/11/11 07:05:22;;;;;;;2.65;1.73;;;9.80;90.20;;;;;;5116097;28;20498;-73
2022/11/11 07:07:48;;;;;;;2.65;1.73;;;9.70;90.20;;;;;;5116361;27;20046;-73
2022/11/11 07:10:15;;;;;;;4.00;2.25;;;9.80;90.20;;;;;;5134182;27;20466;-73
2022/11/11 07:12:41;;;;;;;3.28;1.88;;;9.70;90.20;;;;;;5134134;27;20055;-73
2022/11/11 07:15:07;;;;;;;3.22;1.95;;;9.70;90.30;;;;;;5115436;28;20050;-73
2022/11/11 07:17:34;;;;;;;3.33;2.10;;;9.60;90.30;;;;;;5133964;27;20157;-73
2022/11/11 07:19:59;;;;;;;3.45;2.13;;;9.70;90.30;;;;;;5133799;27;20053;-72
2022/11/11 07:22:25;;;;;;;3.50;2.20;;;9.60;90.30;;;;;;5134023;27;20035;-73
2022/11/11 07:24:51;;;;;;;3.97;1.98;;;9.60;90.30;;;;;;5134344;27;20107;-73
2022/11/11 07:27:17;;;;;;;3.33;1.90;;;9.60;90.40;;;;;;5134109;27;20039;-73
2022/11/11 07:29:43;;;;;;;3.00;1.90;;;9.50;90.30;;;;;;5114080;28;20039;-73
2022/11/11 07:32:08;;;;;;;3.83;2.05;;;9.50;90.40;;;;;;5134391;27;20027;-73
2022/11/11 07:34:34;;;;;;;4.05;2.10;;;9.50;90.40;;;;;;5134209;27;20114;-73
2022/11/11 07:37:00;;;;;;;3.05;1.90;;;9.50;90.40;;;;;;5116126;27;20039;-73
2022/11/11 07:39:25;;;;;;;3.63;1.83;;;9.50;90.40;;;;;;5115626;28;20144;-73
2022/11/11 07:41:51;;;;;;;2.38;1.40;;;9.40;90.40;;;;;;5134282;27;20035;-73
2022/11/11 07:44:17;;;;;;;3.60;1.77;;;9.50;90.50;;;;;;5115306;27;20108;-73
2022/11/11 07:46:43;;;;;;;3.70;2.00;;;9.40;90.40;;;;;;5133871;27;20047;-73
2022/11/11 07:49:08;;;;;;;3.80;2.33;;;9.50;90.40;;;;;;5115992;27;20580;-73
2022/11/11 07:51:34;;;;;;;2.95;1.92;;;9.40;90.40;;;;;;5115386;27;20119;-72
2022/11/11 07:54:00;;;;;;;3.22;1.95;;;9.40;90.40;;;;;;5115996;28;20085;-73
2022/11/11 07:56:25;;;;;;;3.55;2.13;;;9.40;90.40;;;;;;5112983;28;20135;-73
2022/11/11 07:58:51;;;;;;;3.60;2.17;;;9.30;90.40;;;;;;5114467;27;20402;-73
2022/11/11 08:01:17;;;;;;;3.47;2.08;;;9.30;90.40;;;;;;5133530;27;20031;-72
2022/11/11 08:03:49;;;;;;;3.60;2.10;;;9.30;90.40;;;;;;5133944;27;20063;-72
2022/11/11 08:06:17;;;;;;;4.90;2.90;;;9.30;90.40;;;;;;5133529;27;20046;-72
2022/11/11 08:08:42;;;;;;;3.80;2.30;;;9.20;90.40;;;;;;5115341;28;20039;-72
2022/11/11 08:11:08;;;;;;;4.10;2.35;;;9.30;90.50;;;;;;5133465;27;20050;-72
2022/11/11 08:13:42;;;;;;;3.67;2.25;;;9.30;90.40;;;;;;5115116;27;20459;-73
2022/11/11 08:16:09;;;;;;;3.55;2.25;;;9.30;90.40;;;;;;5133664;27;20122;-73
2022/11/11 08:18:35;;;;;;;4.10;2.60;;;9.20;90.30;;;;;;5114953;28;20043;-72
2022/11/11 08:21:02;;;;;;;4.53;2.60;;;9.30;90.30;;;;;;5114822;28;20050;-72
2022/11/11 08:23:59;;;;;;;4.50;2.67;;;9.20;90.30;;;;;;5133019;27;20046;-73
2022/11/11 08:26:25;;;;;;;4.60;2.75;;;9.20;90.30;;;;;;5097154;27;20078;-74
2022/11/11 08:28:52;;;;;;;4.47;2.67;;;9.10;90.30;;;;;;5133053;27;20081;-73
2022/11/11 08:31:18;;;;;;;4.32;2.40;;;9.30;90.30;;;;;;5132984;27;20082;-72
2022/11/11 08:33:44;;;;;;;3.72;2.00;;;9.20;90.30;;;;;;5133052;27;20402;-73
2022/11/11 08:36:10;;;;;;;4.65;1.95;;;9.20;90.30;;;;;;5133115;27;20043;-72
2022/11/11 08:38:37;;;;;;;3.78;2.25;;;9.20;90.30;;;;;;5133293;27;20031;-72
2022/11/11 08:41:05;;;;;;;4.20;2.30;;;9.20;90.30;;;;;;5132791;27;20039;-73
2022/11/11 08:43:31;;;;;;;3.88;2.40;;;9.20;90.20;;;;;;5132853;27;20035;-72
2022/11/11 08:45:58;;;;;;;5.13;2.55;;;9.20;90.30;;;;;;5114435;27;20039;-72
2022/11/11 08:48:24;;;;;;;3.08;1.95;;;9.20;90.30;;;;;;5133200;27;20513;-73
2022/11/11 08:50:52;;;;;;;2.75;1.80;;;9.20;90.30;;;;;;5132729;27;20035;-73
2022/11/11 08:53:18;;;;;;;3.47;2.08;;;9.20;90.30;;;;;;5114285;28;20494;-73
2022/11/11 08:55:43;;;;;;;3.42;2.00;;;9.20;90.30;;;;;;5133074;27;20089;-74
2022/11/11 08:58:10;;;;;;;3.15;2.00;;;9.20;90.20;;;;;;5097437;27;20043;-74
2022/11/11 09:00:36;;;;;;;4.65;2.47;;;9.20;90.40;;;;;;5114214;27;20043;-74
2022/11/11 09:03:04;;;;;;;3.92;2.15;;;9.20;90.20;;;;;;5133064;27;20352;-72
2022/11/11 09:05:30;;;;;;;4.53;2.30;;;9.20;90.20;;;;;;5113783;27;20046;-72
2022/11/11 09:08:00;;;;;;;3.75;2.30;;;9.20;90.10;;;;;;5132946;27;20422;-74
2022/11/11 09:10:25;;;;;;;3.38;2.17;;;9.20;90.10;;;;;;5132302;27;20055;-73
2022/11/11 09:12:58;;;;;;;4.80;2.70;;;9.30;90.10;;;;;;5114324;28;20096;-72
2022/11/11 09:15:25;;;;;;;3.80;2.08;;;9.20;90.10;;;;;;5132158;27;20535;-73
2022/11/11 09:17:51;;;;;;;3.22;1.90;;;9.20;90.10;;;;;;5133252;27;20380;-73
2022/11/11 09:20:18;;;;;;;2.97;1.75;;;9.20;90.00;;;;;;5117451;27;20122;-74
2022/11/11 09:22:44;;;;;;;3.08;1.90;;;9.40;90.10;;;;;;5136124;27;20046;-75
2022/11/11 09:25:10;;;;;;;3.60;1.92;;;9.40;90.00;;;;;;5136185;27;20051;-75
2022/11/11 09:27:36;;;;;;;3.47;2.28;;;9.30;89.90;;;;;;5136089;27;20047;-74
2022/11/11 09:30:02;;;;;;;3.33;2.03;;;9.40;89.80;;;;;;5135546;27;20031;-73
2022/11/11 09:32:31;;;;;;;3.25;1.75;;;9.40;89.80;;;;;;5135988;27;20039;-74
2022/11/11 09:35:43;;;;;;;4.10;2.17;;;9.50;89.80;;;;;;5098214;27;20126;-74
2022/11/11 09:38:09;;;;;;;3.90;2.20;;;9.50;89.60;;;;;;5072905;28;20036;-75
2022/11/11 09:41:02;;;;;;;3.17;1.95;;;9.60;89.60;;;;;;5072775;28;20110;-74
2022/11/11 09:43:55;;;;;;;2.88;1.70;;;9.50;89.40;;;;;;5072279;28;20048;-74
2022/11/11 09:46:32;;;;;;;2.85;1.63;;;9.70;89.40;;;;;;5058320;28;20036;-75
2022/11/11 09:49:21;;;;;;;3.17;1.85;;;9.70;89.30;;;;;;5072492;28;20053;-73
2022/11/11 09:52:11;;;;;;;2.53;1.60;;;9.70;89.20;;;;;;5055268;28;20480;-74
2022/11/11 09:54:49;;;;;;;2.38;1.50;;;9.90;89.20;;;;;;5031988;28;20473;-74
2022/11/11 09:57:27;;;;;;;2.40;1.40;;;9.90;89.10;;;;;;5032056;28;20065;-74
2022/11/11 09:59:56;;;;;;;1.25;1.02;;;9.90;89.00;;;;;;5032102;28;20057;-74
2022/11/11 10:02:38;;;;;;;2.00;1.35;;;10.00;88.90;;;;;;5016213;28;20997;-74
2022/11/11 10:05:11;;;;;;;2.03;1.27;;;10.00;88.80;;;;;;5031757;28;20570;-74
2022/11/11 10:07:45;;;;;;;1.73;1.20;;;10.10;88.70;;;;;;5035313;28;20206;-73
2022/11/11 10:10:33;;;;;;;2.45;1.30;;;10.10;88.70;;;;;;5055078;28;20115;-75
2022/11/11 10:24:26;;;;;;;2.28;1.50;;;10.40;88.20;;;;;;4932209;29;20111;-74
2022/11/11 10:27:56;;;;;;;2.03;1.15;;;10.50;88.00;;;;;;4922700;29;20105;-73
2022/11/11 10:30:27;;;;;;;2.25;1.38;;;10.60;87.90;;;;;;4934191;29;20048;-74
2022/11/11 10:33:30;;;;;;;2.15;1.10;;;10.70;87.70;;;;;;4934192;29;20082;-77
2022/11/11 10:35:59;;;;;;;1.30;1.05;;;10.80;87.70;;;;;;4934230;29;20040;-77
2022/11/11 10:38:34;;;;;;;2.38;1.33;;;10.80;87.50;;;;;;4918252;29;20451;-74
2022/11/11 10:41:15;;;;;;;1.80;1.25;;;10.90;87.50;;;;;;4934412;29;20078;-74
2022/11/11 10:43:45;;;;;;;1.92;1.30;;;11.00;87.40;;;;;;4934478;29;20043;-75
2022/11/11 10:46:21;;;;;;;1.60;1.23;;;11.00;87.40;;;;;;4941702;28;20093;-76
2022/11/11 10:48:58;;;;;;;1.90;1.50;;;11.00;87.30;;;;;;4953330;28;20050;-75
2022/11/11 10:51:29;;;;;;;2.63;1.33;;;11.10;87.30;;;;;;4953277;28;20608;-74
2022/11/11 10:54:16;;;;;;;1.73;1.30;;;11.10;87.30;;;;;;5023937;28;20080;-73
2022/11/11 10:57:20;;;;;;;2.00;1.20;;;11.10;87.30;;;;;;5108382;27;20047;-75
2022/11/11 10:59:55;;;;;;;1.50;1.00;;;11.20;87.20;;;;;;5039269;28;20568;-73
2022/11/11 11:02:30;;;;;;;1.65;1.13;;;11.30;87.10;;;;;;5054082;28;20060;-72
2022/11/11 11:05:12;;;;;;;1.33;1.13;;;11.40;87.00;;;;;;5054284;28;20033;-74
2022/11/11 11:07:48;;;;;;;1.33;1.08;;;11.40;87.10;;;;;;5066282;28;20130;-73
2022/11/11 11:14:16;;;;;;;2.00;1.15;;;11.60;86.80;;;;;;4996765;28;20044;-73
2022/11/11 11:17:18;;;;;;;1.48;1.08;;;11.60;86.60;;;;;;5009828;28;20517;-73
2022/11/11 11:19:51;;;;;;;1.40;1.00;;;11.70;86.60;;;;;;4996751;28;20030;-73
2022/11/11 11:22:17;;;;;;;1.40;1.05;;;11.70;86.50;;;;;;4994678;28;20029;-73
2022/11/11 11:24:42;;;;;;;1.50;1.05;;;11.70;86.50;;;;;;5010917;28;20438;-74
2022/11/11 11:27:08;;;;;;;2.17;1.42;;;11.70;87.00;;;;;;5011212;28;20048;-74
2022/11/11 11:29:37;;;;;;;2.95;1.38;;;11.80;86.30;;;;;;4994933;28;20050;-73
2022/11/11 11:32:12;;;;;;;2.33;1.20;;;11.80;86.40;;;;;;5009429;28;20172;-73
2022/11/11 11:34:58;;;;;;;2.67;1.40;;;11.80;86.40;;;;;;5002627;28;20532;-73
2022/11/11 11:37:25;;;;;;;1.83;1.20;;;11.80;86.30;;;;;;5007471;28;20042;-72
2022/11/11 11:43:33;;;;;;;2.15;1.35;;;11.80;86.30;;;;;;4956183;28;20466;-72
2022/11/11 11:46:03;;;;;;;2.65;1.48;;;11.70;86.30;;;;;;4958335;28;20061;-74
2022/11/11 11:49:01;;;;;;;1.27;1.00;;;11.80;86.50;;;;;;5014356;28;20067;-75
2022/11/11 11:51:52;;;;;;;2.13;1.40;;;11.70;86.60;;;;;;5053329;28;20115;-73
2022/11/11 11:54:52;;;;;;;1.80;1.23;;;11.70;86.50;;;;;;5039021;28;20048;-75
2022/11/11 11:57:48;;;;;;;2.00;1.10;;;11.70;86.50;;;;;;5039042;28;20136;-74
2022/11/11 12:00:40;;;;;;;1.85;1.17;;;11.80;86.50;;;;;;5023997;28;20086;-76
2022/11/11 12:17:30;;;;;;;1.17;0.88;;;11.80;86.20;;;;;;5058362;23;20046;-74
2022/11/11 12:20:11;;;;;;;0.80;0.73;;;11.80;86.20;;;;;;4973441;28;20062;-76
2022/11/11 12:23:11;;;;;;;1.25;0.98;;;11.80;86.20;;;;;;4972464;28;20054;-76
2022/11/11 12:26:02;;;;;;;1.05;0.88;;;11.90;86.30;;;;;;4972607;28;20046;-76
2022/11/11 12:29:01;;;;;;;0.90;0.65;;;11.90;86.10;;;;;;4941215;28;20090;-78
2022/11/11 12:31:48;;;;;;;0.95;0.80;;;12.00;86.00;;;;;;4941185;28;20063;-73
2022/11/11 12:34:48;;;;;;;1.10;0.75;;;12.00;85.90;;;;;;4985992;28;20038;-77
2022/11/11 12:37:35;;;;;;;0.93;0.68;;;12.10;85.90;;;;;;4915175;29;20106;-75
2022/11/11 12:40:40;;;;;;;1.23;0.63;;;12.10;85.80;;;;;;4915689;29;20051;-76
2022/11/11 12:43:38;;;;;;;1.00;0.70;;;12.10;86.30;;;;;;4916414;29;20130;-75
2022/11/11 12:46:43;;;;;;;0.85;0.80;;;12.10;85.70;;;;;;4900267;29;20036;-75
2022/11/11 12:49:41;;;;;;;1.40;0.80;;;12.20;85.60;;;;;;4915592;29;20074;-75
2022/11/11 12:52:26;;;;;;;0.80;0.60;;;12.20;85.60;;;;;;4918237;29;20079;-74
2022/11/11 12:55:16;;;;;;;0.75;0.60;;;12.20;85.50;;;;;;4917813;29;20039;-73
2022/11/11 12:58:10;;;;;;;0.80;0.45;;;12.30;85.50;;;;;;4903216;29;20044;-74
2022/11/11 13:00:53;;;;;;;1.15;0.68;;;12.30;85.40;;;;;;4918817;29;20039;-74
2022/11/11 13:03:52;;;;;;;0.93;0.60;;;12.30;85.30;;;;;;4925873;28;20035;-74
2022/11/11 13:06:48;;;;;;;1.00;0.70;;;12.20;85.30;;;;;;4957191;28;20042;-76
2022/11/11 13:42:12;;;;;;;0.73;0.50;;;12.60;84.90;;;;;;4714031;30;20041;-74
2022/11/11 13:52:02;;;;;;;0.63;0.50;;;12.60;84.60;;;;;;4679982;30;20052;-73
2022/11/11 13:54:37;;;;;;;0.70;0.40;;;12.70;84.50;;;;;;4653930;30;20062;-74
2022/11/11 13:57:20;;;;;;;1.05;0.50;;;12.60;84.40;;;;;;4653836;30;20082;-74
2022/11/11 13:59:59;;;;;;;0.90;0.60;;;12.80;84.50;;;;;;4665816;30;20060;-74
2022/11/11 14:02:29;;;;;;;0.68;0.60;;;12.70;84.20;;;;;;4669179;30;20134;-74
2022/11/11 14:05:16;;;;;;;0.50;0.50;;;12.80;84.20;;;;;;4684755;30;20128;-74
2022/11/11 14:07:49;;;;;;;0.43;0.43;;;12.80;84.20;;;;;;4802754;29;20042;-74
2022/11/11 14:10:46;;;;;;;0.82;0.50;;;12.90;84.10;;;;;;4795297;29;20132;-74
2022/11/11 14:13:36;;;;;;;0.95;0.52;;;12.90;84.10;;;;;;4829356;29;20042;-74
2022/11/11 14:16:02;;;;;;;0.30;0.30;;;13.00;84.10;;;;;;4925903;29;20054;-75
2022/11/11 14:18:37;;;;;;;0.35;0.35;;;12.90;84.00;;;;;;4905944;29;20048;-75
2022/11/11 14:21:10;;;;;;;0.43;0.43;;;12.90;84.00;;;;;;4905449;29;20027;-76
2022/11/11 14:23:42;;;;;;;0.80;0.40;;;12.90;84.00;;;;;;4883866;29;20051;-76
2022/11/11 14:37:59;;;;;;;0.28;0.28;;;12.90;84.30;;;;;;4799065;29;20763;-74
2022/11/11 14:40:34;;;;;;;0.38;0.38;;;12.80;84.40;;;;;;4828786;29;20049;-76
2022/11/11 14:43:33;;;;;;;0.40;0.40;;;12.70;84.40;;;;;;4850915;29;20538;-74
2022/11/11 14:46:06;;;;;;;0.30;0.30;;;12.70;84.60;;;;;;4880063;29;20249;-73
2022/11/11 14:48:53;;;;;;;0.45;0.40;;;12.60;84.60;;;;;;4885614;29;20106;-74
2022/11/11 14:51:51;;;;;;;0.52;0.30;;;12.60;84.70;;;;;;4919350;29;20159;-74
2022/11/11 14:54:29;;;;;;;0.43;0.30;;;12.70;84.90;;;;;;4954376;28;20046;-73
2022/11/11 14:57:01;;;;;;;0.13;0.13;;;12.60;84.90;;;;;;4959626;28;20058;-74
2022/11/11 14:59:30;;;;;;;0.30;0.30;;;12.60;84.90;;;;;;4960436;28;20096;-74
2022/11/11 15:01:57;;;;;;;0.20;0.20;;;12.60;84.90;;;;;;4960348;28;20071;-74
2022/11/11 15:04:24;;;;;;;0.43;0.28;;;12.50;84.90;;;;;;4960289;28;20039;-74
2022/11/11 15:07:14;;;;;;;0.55;0.30;;;12.50;85.00;;;;;;4959748;28;20108;-74
2022/11/11 15:10:11;;;;;;;0.32;0.30;;;12.40;85.10;;;;;;4960135;28;20090;-73
2022/11/11 15:12:51;;;;;;;0.95;0.30;;;12.40;85.30;;;;;;4960095;28;20038;-74
2022/11/11 15:15:26;;;;;;;0.52;0.43;;;12.30;85.40;;;;;;4958423;28;20398;-75
2022/11/11 15:18:25;;;;;;;0.22;0.22;;;12.20;85.50;;;;;;4959723;28;20045;-76
2022/11/11 15:21:05;;;;;;;0.30;0.30;;;12.20;85.70;;;;;;4962514;28;20049;-75
2022/11/11 15:23:48;;;;;;;0.47;0.40;;;12.10;85.80;;;;;;4959272;28;20042;-75
2022/11/11 15:26:24;;;;;;;0.30;0.30;;;12.00;86.00;;;;;;4959788;28;20058;-75
2022/11/11 15:29:19;;;;;;;0.40;0.32;;;12.00;86.10;;;;;;4959340;28;20502;-75
2022/11/11 15:31:57;;;;;;;0.20;0.20;;;11.90;86.20;;;;;;4959264;28;20388;-75
2022/11/11 15:34:57;;;;;;;0.47;0.20;;;11.80;86.30;;;;;;4959324;28;20046;-75
2022/11/11 15:37:25;;;;;;;0.20;0.20;;;11.70;86.50;;;;;;4960294;28;20045;-75
2022/11/11 15:48:20;;;;;;;0.40;0.35;;;11.50;86.90;;;;;;4928345;29;20091;-76
2022/11/11 15:51:26;;;;;;;0.20;0.20;;;11.40;86.90;;;;;;4823702;29;20103;-76
2022/11/11 15:58:16;;;;;;;0.30;0.30;;;11.20;87.10;;;;;;4792106;29;20069;-75
2022/11/11 16:00:57;;;;;;;0.63;0.20;;;11.20;87.30;;;;;;4729151;30;20049;-75
2022/11/11 16:08:27;;;;;;;0.20;0.20;;;11.00;87.50;;;;;;4748152;30;20311;-74
2022/11/11 16:10:57;;;;;;;0.30;0.30;;;10.80;87.50;;;;;;4746343;30;20130;-73
2022/11/11 16:13:34;;;;;;;0.28;0.28;;;10.80;87.70;;;;;;4705155;30;20063;-74
2022/11/11 16:16:05;;;;;;;0.20;0.20;;;10.70;87.80;;;;;;4755101;30;20044;-75
2022/11/11 16:18:43;;;;;;;0.40;0.30;;;10.60;87.90;;;;;;4755090;30;20056;-75
2022/11/11 16:21:21;;;;;;;0.80;0.40;;;10.50;88.00;;;;;;4755324;30;20052;-75